Aérodrome :







RETROUVEZ-NOUS SUR...

 
LOGIN :

S'inscrire | Disclaimer

   EN    FR    IT 

 









Légende :    VFR   VFR Marginal   IFR   IFR Intensif   IFR Très Intensif
Visi : 
Plafond : 
>= 8 km
>= 3000ft
5 à 8 km
1000 à 3000 ft
1500m à 5 km
500 à 1000 ft
800 à 1500m
200 à 500 ft
< 800m
< 200 ft
Symboles :   Orages  Brouillard  Fortes neiges  Fortes précipitations  Vent > 20 kt






- Altitude de l'aérodrome : 56 ft


KRKD - Knox County Regional

DERNIER METAR :
  • 140556Z AUTO 30005KT 10SM CLR M10/M13 A3044 RMK AO2 SLP309 T11001128 11072 21100 50015 FZRANO

METARs EXPIRÉS :
  • 140456Z AUTO 30006KT 10SM CLR M09/M13 A3044 RMK AO2 SLP310 T10941128 410391106 FZRANO
  • 140356Z AUTO 30006KT 10SM CLR M09/M13 A3042 RMK AO2 SLP303 T10941133 FZRANO

TAF KRKD
Valide du 14 à 06h jusqu'au 15 à 06h UTC


140520Z 1406/1506 VRB03KT P6SM FEW150
FM141500 VRB04KT P6SM BKN020 AMD LTD TO CLD VIS AND WIND



MET'MAP, la Météo Aéronautique d'un coup d'oeil ! - Copyright ORBIFLY Décembre 2007 - Disclaimer

ORBIFLY MET'MAP TEAM :

Programmation & Développement : Alexandra Zaïnal
Conception & Développement : Baudouin d'Aumeries
Co-Programmation & Développement : Marc-Olivier Méhu
Soutien technique & logistique : Manuel Goepfert

Contact : metmap@orbifly.com




SOURCES & CREDITS :

   NOAA